Time;durP1;ratioP1;P1;durP2;ratioP2;P2;SDS_P1;SDS_P2;PMS_P1;PMS_P2;Temp;Humidity;BMP_temperature;BMP_pressure;BME280_temperature;BME280_humidity;BME280_pressure;Samples;Min_cycle;Max_cycle;Signal;HPM_P1;HPM_P2
2023/09/27 00:01:52;;;;;;;;;;;24.70;64.40;;;;;;5085829;28;43700;-78
2023/09/27 00:04:18;;;;;;;;;;;24.30;64.00;;;;;;5086050;28;42763;-78
2023/09/27 00:06:43;;;;;;;;;;;24.30;63.90;;;;;;5086192;28;43624;-79
2023/09/27 00:09:09;;;;;;;;;;;24.30;63.40;;;;;;5086567;28;43404;-79
2023/09/27 00:11:35;;;;;;;;;;;24.30;63.90;;;;;;5086655;28;43240;-80
2023/09/27 00:14:00;;;;;;;;;;;24.40;63.90;;;;;;5085664;27;43066;-79
2023/09/27 00:16:27;;;;;;;;;;;24.20;63.70;;;;;;5086263;28;43467;-80
2023/09/27 00:18:53;;;;;;;;;;;26.20;65.10;;;;;;5086173;28;43052;-79
2023/09/27 00:21:18;;;;;;;;;;;24.30;63.00;;;;;;5084291;28;43536;-79
2023/09/27 00:23:44;;;;;;;;;;;24.40;63.70;;;;;;5085783;28;42985;-79
2023/09/27 00:26:09;;;;;;;;;;;24.30;62.80;;;;;;5085761;28;43567;-79
2023/09/27 00:28:35;;;;;;;;;;;24.20;62.70;;;;;;5085975;27;42984;-78
2023/09/27 00:31:01;;;;;;;;;;;24.30;63.20;;;;;;5084336;28;43804;-79
2023/09/27 00:33:26;;;;;;;;;;;24.40;62.70;;;;;;5086205;28;42930;-79
2023/09/27 00:35:52;;;;;;;;;;;24.30;63.30;;;;;;5085783;28;42916;-78
2023/09/27 00:38:18;;;;;;;;;;;24.30;63.30;;;;;;5074403;28;42982;-79
2023/09/27 00:40:50;;;;;;;;;;;24.10;63.10;;;;;;5065754;28;42938;-79
2023/09/27 00:43:25;;;;;;;;;;;24.30;60.80;;;;;;5074787;28;43055;-81
2023/09/27 00:45:52;;;;;;;;;;;24.40;60.90;;;;;;5085968;28;42977;-79
2023/09/27 00:48:17;;;;;;;;;;;24.20;63.00;;;;;;5086484;28;42863;-79
2023/09/27 00:50:43;;;;;;;;;;;24.20;62.80;;;;;;5085877;28;43549;-79
2023/09/27 00:53:08;;;;;;;;;;;24.20;62.90;;;;;;5085515;28;43104;-79
2023/09/27 00:55:35;;;;;;;;;;;24.20;62.90;;;;;;5084417;28;42965;-79
2023/09/27 00:58:01;;;;;;;;;;;24.20;62.80;;;;;;5085544;28;42924;-78
2023/09/27 01:00:27;;;;;;;;;;;24.10;62.60;;;;;;5085252;28;43490;-79
2023/09/27 01:02:53;;;;;;;;;;;23.80;62.50;;;;;;5083971;28;42906;-79
2023/09/27 01:05:19;;;;;;;;;;;24.20;63.50;;;;;;5083862;28;43033;-79
2023/09/27 01:07:44;;;;;;;;;;;24.30;62.90;;;;;;5085278;28;42917;-79
2023/09/27 01:10:10;;;;;;;;;;;24.20;62.80;;;;;;5084916;28;43539;-79
2023/09/27 01:12:38;;;;;;;;;;;24.20;62.90;;;;;;5085418;28;42879;-79
2023/09/27 01:15:05;;;;;;;;;;;24.20;60.20;;;;;;5084575;28;42905;-79
2023/09/27 01:17:30;;;;;;;;;;;24.10;62.00;;;;;;5100565;27;43038;-80
2023/09/27 01:19:56;;;;;;;;;;;24.10;62.70;;;;;;5083465;28;43545;-79
2023/09/27 01:22:22;;;;;;;;;;;24.00;62.90;;;;;;5085158;28;43076;-79
2023/09/27 01:24:48;;;;;;;;;;;24.20;62.60;;;;;;5083440;28;42987;-79
2023/09/27 01:27:14;;;;;;;;;;;24.10;62.90;;;;;;5085282;28;42858;-79
2023/09/27 01:29:40;;;;;;;;;;;23.90;62.70;;;;;;5084904;28;42907;-78
2023/09/27 01:32:05;;;;;;;;;;;24.00;62.40;;;;;;5084381;28;42923;-79
2023/09/27 01:34:31;;;;;;;;;;;24.20;62.90;;;;;;5085308;28;42842;-79
2023/09/27 01:36:57;;;;;;;;;;;24.10;62.10;;;;;;5083599;27;43196;-79
2023/09/27 01:39:24;;;;;;;;;;;24.00;62.80;;;;;;5115719;27;45625;-79
2023/09/27 01:41:49;;;;;;;;;;;24.10;62.10;;;;;;5083686;28;42964;-79
2023/09/27 01:44:15;;;;;;;;;;;24.20;62.90;;;;;;5084863;28;43561;-81
2023/09/27 01:46:40;;;;;;;;;;;24.10;62.90;;;;;;5085011;28;43150;-79
2023/09/27 01:49:06;;;;;;;;;;;24.00;62.10;;;;;;5084767;28;42937;-79
2023/09/27 01:51:31;;;;;;;;;;;24.10;62.80;;;;;;5084153;28;42990;-79
2023/09/27 01:53:57;;;;;;;;;;;24.10;62.90;;;;;;5116398;27;44344;-79
2023/09/27 01:56:22;;;;;;;;;;;23.80;62.70;;;;;;5084806;28;43120;-79
2023/09/27 01:58:48;;;;;;;;;;;24.00;62.70;;;;;;5083848;28;43522;-78
2023/09/27 02:01:13;;;;;;;;;;;24.20;62.50;;;;;;5082531;28;42927;-79
2023/09/27 02:03:40;;;;;;;;;;;24.20;61.70;;;;;;5083852;28;43045;-79
2023/09/27 02:06:05;;;;;;;;;;;23.90;62.40;;;;;;5084444;28;42927;-79
2023/09/27 02:08:31;;;;;;;;;;;24.30;62.60;;;;;;5084614;28;43475;-79
2023/09/27 02:10:56;;;;;;;;;;;24.00;62.50;;;;;;5084246;28;43020;-79
2023/09/27 02:13:22;;;;;;;;;;;24.00;62.40;;;;;;5083803;28;42889;-79
2023/09/27 02:15:47;;;;;;;;;;;24.10;62.60;;;;;;5084010;28;42874;-79
2023/09/27 02:18:13;;;;;;;;;;;24.00;62.30;;;;;;5083720;28;42919;-79
2023/09/27 02:20:38;;;;;;;;;;;24.10;62.10;;;;;;5084089;28;43320;-81
2023/09/27 02:23:04;;;;;;;;;;;24.20;62.20;;;;;;5084139;28;43382;-78
2023/09/27 02:25:30;;;;;;;;;;;24.10;62.20;;;;;;5084217;28;42963;-79
2023/09/27 02:27:55;;;;;;;;;;;23.90;61.40;;;;;;5083843;28;43586;-79
2023/09/27 02:30:21;;;;;;;;;;;24.10;62.20;;;;;;5079556;28;44365;-78
2023/09/27 02:32:47;;;;;;;;;;;24.00;62.20;;;;;;5082930;28;42942;-79
2023/09/27 02:35:18;;;;;;;;;;;24.20;62.30;;;;;;5081795;27;43099;-79
2023/09/27 02:37:44;;;;;;;;;;;23.90;61.90;;;;;;5103226;27;43559;-78
2023/09/27 02:40:12;;;;;;;;;;;24.10;62.30;;;;;;5103057;27;42826;-80
2023/09/27 02:42:39;;;;;;;;;;;24.00;61.50;;;;;;5103458;27;43514;-79
2023/09/27 02:45:07;;;;;;;;;;;24.00;62.20;;;;;;5103566;27;42891;-79
2023/09/27 02:47:32;;;;;;;;;;;24.00;61.30;;;;;;5103351;27;43521;-79
2023/09/27 02:49:58;;;;;;;;;;;24.00;61.40;;;;;;5104316;27;42955;-79
2023/09/27 02:52:23;;;;;;;;;;;24.10;61.70;;;;;;5106905;27;42838;-79
2023/09/27 02:54:49;;;;;;;;;;;24.20;61.90;;;;;;5107755;27;42874;-79
2023/09/27 02:57:14;;;;;;;;;;;23.90;61.70;;;;;;5108113;27;43527;-80
2023/09/27 02:59:40;;;;;;;;;;;24.00;61.80;;;;;;5108403;27;43074;-80
2023/09/27 03:02:06;;;;;;;;;;;23.90;61.70;;;;;;5108094;27;43535;-79
2023/09/27 03:04:31;;;;;;;;;;;24.10;62.00;;;;;;5107740;27;42786;-79
2023/09/27 03:06:59;;;;;;;;;;;24.10;62.20;;;;;;5107775;27;43300;-79
2023/09/27 03:09:24;;;;;;;;;;;24.00;61.90;;;;;;5108148;27;43091;-79
2023/09/27 03:11:50;;;;;;;;;;;24.00;61.30;;;;;;5066634;28;44342;-79
2023/09/27 03:14:15;;;;;;;;;;;24.00;62.10;;;;;;5067200;28;42834;-81
2023/09/27 03:16:42;;;;;;;;;;;24.10;62.60;;;;;;5072312;27;42855;-79
2023/09/27 03:19:08;;;;;;;;;;;24.10;62.10;;;;;;5094581;27;42949;-79
2023/09/27 03:21:34;;;;;;;;;;;24.00;61.10;;;;;;5088678;27;44721;-79
2023/09/27 03:23:59;;;;;;;;;;;24.10;62.00;;;;;;5107510;27;42916;-79
2023/09/27 03:26:25;;;;;;;;;;;24.00;61.00;;;;;;5107675;27;42865;-79
2023/09/27 03:28:51;;;;;;;;;;;24.00;61.90;;;;;;5107550;27;42879;-79
2023/09/27 03:31:17;;;;;;;;;;;24.10;62.20;;;;;;5107589;27;42929;-79
2023/09/27 03:33:43;;;;;;;;;;;23.90;61.80;;;;;;5107974;27;42936;-79
2023/09/27 03:36:08;;;;;;;;;;;24.10;61.90;;;;;;5107228;27;43602;-79
2023/09/27 03:38:34;;;;;;;;;;;23.80;61.60;;;;;;5086631;28;43056;-79
2023/09/27 03:40:59;;;;;;;;;;;23.80;62.00;;;;;;5086994;28;42955;-79
2023/09/27 03:43:25;;;;;;;;;;;24.00;61.90;;;;;;5068734;28;42924;-80
2023/09/27 03:45:51;;;;;;;;;;;24.00;61.70;;;;;;5087039;28;42917;-80
2023/09/27 03:48:17;;;;;;;;;;;24.10;62.10;;;;;;5064603;28;43073;-79
2023/09/27 03:50:42;;;;;;;;;;;24.10;61.90;;;;;;5066487;28;42928;-79
2023/09/27 03:53:08;;;;;;;;;;;23.90;61.80;;;;;;5066984;28;42768;-80
2023/09/27 03:55:33;;;;;;;;;;;23.80;61.40;;;;;;5066796;28;42967;-79
2023/09/27 03:57:59;;;;;;;;;;;24.00;61.70;;;;;;5066781;28;42870;-79
2023/09/27 04:00:24;;;;;;;;;;;24.00;61.80;;;;;;5066542;28;43268;-80
2023/09/27 04:02:50;;;;;;;;;;;23.90;62.10;;;;;;5072072;27;42866;-78
2023/09/27 04:05:18;;;;;;;;;;;24.00;61.80;;;;;;5086932;28;43216;-79
2023/09/27 04:07:43;;;;;;;;;;;24.20;61.70;;;;;;5086136;28;43036;-79
2023/09/27 04:10:09;;;;;;;;;;;24.00;61.80;;;;;;5083663;27;43875;-79
2023/09/27 04:12:35;;;;;;;;;;;24.10;61.60;;;;;;5086815;28;43067;-79
2023/09/27 04:15:00;;;;;;;;;;;23.80;61.50;;;;;;5090359;27;43532;-79
2023/09/27 04:17:26;;;;;;;;;;;24.00;61.10;;;;;;5084417;27;43666;-79
2023/09/27 04:19:53;;;;;;;;;;;24.10;61.70;;;;;;5079541;28;43197;-82
2023/09/27 04:22:18;;;;;;;;;;;24.00;61.60;;;;;;5077552;28;43024;-79
2023/09/27 04:24:44;;;;;;;;;;;23.90;61.60;;;;;;5096122;27;43670;-79
2023/09/27 04:27:09;;;;;;;;;;;24.30;61.80;;;;;;5086249;28;42863;-79
2023/09/27 04:29:35;;;;;;;;;;;24.10;61.90;;;;;;5083920;28;43820;-79
2023/09/27 04:32:01;;;;;;;;;;;24.30;61.90;;;;;;5081046;28;42954;-80
2023/09/27 04:34:26;;;;;;;;;;;24.00;61.90;;;;;;5058535;28;44761;-80
2023/09/27 04:36:53;;;;;;;;;;;24.00;61.80;;;;;;5078869;28;43065;-81
2023/09/27 04:39:19;;;;;;;;;;;23.80;61.80;;;;;;5085863;28;42897;-80
2023/09/27 04:41:46;;;;;;;;;;;24.00;61.80;;;;;;5085861;28;42958;-81
2023/09/27 04:44:15;;;;;;;;;;;24.00;61.80;;;;;;5082714;28;43057;-80
2023/09/27 04:46:40;;;;;;;;;;;24.00;59.60;;;;;;5085820;28;43080;-79
2023/09/27 04:49:06;;;;;;;;;;;23.80;61.90;;;;;;5084663;28;43569;-80
2023/09/27 04:51:32;;;;;;;;;;;23.50;61.50;;;;;;5082961;28;43562;-81
2023/09/27 04:54:00;;;;;;;;;;;23.80;61.80;;;;;;5084084;28;43648;-81
2023/09/27 04:56:26;;;;;;;;;;;24.10;62.10;;;;;;5082464;28;43101;-81
2023/09/27 04:58:52;;;;;;;;;;;23.90;61.80;;;;;;5085046;28;42811;-80
2023/09/27 05:01:18;;;;;;;;;;;24.00;62.30;;;;;;5104755;27;43505;-81
2023/09/27 05:03:43;;;;;;;;;;;24.10;62.50;;;;;;5082686;28;44054;-82
2023/09/27 05:06:08;;;;;;;;;;;24.00;62.10;;;;;;5083263;28;42864;-81
2023/09/27 05:08:34;;;;;;;;;;;24.10;61.50;;;;;;5078691;28;42849;-80
2023/09/27 05:11:00;;;;;;;;;;;24.10;62.20;;;;;;5082062;28;43120;-80
2023/09/27 05:13:26;;;;;;;;;;;24.10;62.10;;;;;;5082681;28;42985;-81
2023/09/27 05:15:52;;;;;;;;;;;24.00;60.70;;;;;;5081748;28;43560;-82
2023/09/27 05:18:18;;;;;;;;;;;24.10;62.20;;;;;;5081544;28;43503;-82
2023/09/27 05:20:43;;;;;;;;;;;24.00;62.40;;;;;;5069383;28;43014;-82
2023/09/27 05:23:09;;;;;;;;;;;24.10;61.70;;;;;;5083187;28;43467;-82
2023/09/27 05:25:35;;;;;;;;;;;24.00;62.10;;;;;;5084895;28;42877;-82
2023/09/27 05:28:00;;;;;;;;;;;24.10;62.00;;;;;;5083987;28;42937;-82
2023/09/27 05:30:26;;;;;;;;;;;24.10;62.00;;;;;;5084807;28;43054;-82
2023/09/27 05:32:51;;;;;;;;;;;24.10;61.70;;;;;;5084120;28;43392;-82
2023/09/27 05:35:17;;;;;;;;;;;24.20;61.50;;;;;;5084458;28;42934;-81
2023/09/27 05:37:43;;;;;;;;;;;24.10;61.40;;;;;;5083142;28;43238;-82
2023/09/27 05:40:10;;;;;;;;;;;24.00;61.50;;;;;;5083869;28;43057;-82
2023/09/27 05:42:39;;;;;;;;;;;24.20;61.30;;;;;;5084513;28;43072;-81
2023/09/27 05:45:05;;;;;;;;;;;24.10;59.60;;;;;;5083469;27;42898;-80
2023/09/27 05:47:30;;;;;;;;;;;24.20;61.80;;;;;;5082776;28;43786;-81
2023/09/27 05:49:56;;;;;;;;;;;24.20;62.00;;;;;;5083060;28;42907;-81
2023/09/27 05:52:22;;;;;;;;;;;24.30;62.10;;;;;;5084461;27;42952;-81
2023/09/27 05:54:47;;;;;;;;;;;24.10;62.10;;;;;;5083588;27;43961;-79
2023/09/27 05:57:14;;;;;;;;;;;24.30;62.50;;;;;;5084734;28;43354;-80
2023/09/27 05:59:44;;;;;;;;;;;23.90;62.40;;;;;;5084120;28;42750;-79
2023/09/27 06:02:16;;;;;;;;;;;23.90;62.40;;;;;;5084645;28;42953;-79
2023/09/27 06:04:45;;;;;;;;;;;24.00;62.70;;;;;;5085211;28;42977;-80
2023/09/27 06:07:13;;;;;;;;;;;24.20;63.00;;;;;;5083439;28;45609;-80
2023/09/27 06:09:42;;;;;;;;;;;23.90;62.80;;;;;;5085117;28;42858;-80
2023/09/27 06:12:10;;;;;;;;;;;23.90;60.50;;;;;;5084875;28;43374;-80
2023/09/27 06:14:36;;;;;;;;;;;24.00;62.70;;;;;;5085024;28;42882;-80
2023/09/27 06:17:05;;;;;;;;;;;24.00;62.90;;;;;;5085167;28;43332;-80
2023/09/27 06:19:31;;;;;;;;;;;24.10;60.70;;;;;;5085204;28;42983;-80
2023/09/27 06:21:58;;;;;;;;;;;24.00;63.00;;;;;;5084761;28;43402;-80
2023/09/27 06:24:24;;;;;;;;;;;24.00;63.00;;;;;;5084487;28;43289;-80
2023/09/27 06:26:50;;;;;;;;;;;24.00;62.90;;;;;;5086386;27;42926;-80
2023/09/27 06:29:16;;;;;;;;;;;24.00;63.00;;;;;;5088535;28;42918;-80
2023/09/27 06:31:41;;;;;;;;;;;24.20;62.50;;;;;;5088603;28;42961;-80
2023/09/27 06:34:07;;;;;;;;;;;24.00;63.20;;;;;;5088396;28;42977;-80
2023/09/27 06:36:34;;;;;;;;;;;24.10;63.30;;;;;;5087949;28;42787;-80
2023/09/27 06:39:00;;;;;;;;;;;24.20;63.40;;;;;;5088516;28;42914;-80
2023/09/27 06:41:26;;;;;;;;;;;24.00;63.40;;;;;;5088244;28;43539;-80
2023/09/27 06:43:53;;;;;;;;;;;24.10;63.30;;;;;;5088338;28;42760;-80
2023/09/27 06:46:19;;;;;;;;;;;24.10;64.80;;;;;;5087818;28;43087;-80
2023/09/27 06:48:45;;;;;;;;;;;24.10;65.60;;;;;;5087634;28;42912;-80
2023/09/27 06:51:13;;;;;;;;;;;24.00;65.70;;;;;;5087965;28;43415;-80
2023/09/27 06:53:39;;;;;;;;;;;24.20;65.90;;;;;;5088317;28;43012;-80
2023/09/27 06:56:05;;;;;;;;;;;24.10;65.90;;;;;;5087629;28;42800;-80
2023/09/27 06:58:31;;;;;;;;;;;24.10;66.10;;;;;;5087906;28;42798;-80
2023/09/27 07:00:57;;;;;;;;;;;24.10;66.10;;;;;;5088268;28;43487;-80
2023/09/27 07:03:25;;;;;;;;;;;24.00;66.20;;;;;;5088307;28;42783;-80
2023/09/27 07:05:51;;;;;;;;;;;24.20;64.80;;;;;;5088153;28;43635;-79
2023/09/27 07:08:16;;;;;;;;;;;24.40;66.30;;;;;;5087318;28;42913;-80
2023/09/27 07:10:42;;;;;;;;;;;24.10;66.10;;;;;;5087465;28;42988;-79
2023/09/27 07:13:08;;;;;;;;;;;24.00;66.00;;;;;;5088498;28;42840;-80
2023/09/27 07:15:33;;;;;;;;;;;24.10;65.90;;;;;;5087681;28;43483;-80
2023/09/27 07:17:59;;;;;;;;;;;24.20;66.20;;;;;;5087364;28;43109;-79
2023/09/27 07:20:27;;;;;;;;;;;24.20;66.50;;;;;;5086912;28;43560;-80
2023/09/27 07:22:54;;;;;;;;;;;24.00;66.00;;;;;;5087947;28;42934;-80
2023/09/27 07:25:20;;;;;;;;;;;24.10;66.30;;;;;;5087396;28;44510;-80
2023/09/27 07:27:47;;;;;;;;;;;24.20;66.10;;;;;;5087369;28;42958;-80
2023/09/27 07:30:17;;;;;;;;;;;24.20;66.40;;;;;;5086621;28;43483;-79
2023/09/27 07:32:44;;;;;;;;;;;24.60;66.30;;;;;;5087758;28;42859;-80
2023/09/27 07:35:10;;;;;;;;;;;24.10;66.40;;;;;;5087859;28;43375;-79
2023/09/27 07:37:37;;;;;;;;;;;24.00;66.30;;;;;;5086356;28;43115;-80
2023/09/27 07:40:11;;;;;;;;;;;24.20;66.50;;;;;;5085572;28;45343;-80
2023/09/27 07:42:43;;;;;;;;;;;24.00;65.80;;;;;;5087620;28;42952;-79
2023/09/27 07:45:20;;;;;;;;;;;24.00;64.20;;;;;;5087632;28;43654;-80
2023/09/27 07:47:46;;;;;;;;;;;24.20;66.30;;;;;;5087924;28;43000;-80
2023/09/27 07:50:12;;;;;;;;;;;24.20;66.70;;;;;;5087510;28;43135;-80
2023/09/27 07:52:37;;;;;;;;;;;24.10;66.50;;;;;;5086086;28;42989;-80
2023/09/27 07:55:04;;;;;;;;;;;24.30;66.60;;;;;;5087482;28;43415;-80
2023/09/27 07:57:30;;;;;;;;;;;24.10;66.10;;;;;;5087575;28;42952;-80
2023/09/27 07:59:55;;;;;;;;;;;24.10;66.30;;;;;;5086958;28;43714;-79
2023/09/27 08:02:21;;;;;;;;;;;24.30;66.30;;;;;;5086981;28;42968;-80
2023/09/27 08:04:48;;;;;;;;;;;24.10;66.10;;;;;;5086307;28;43000;-80
2023/09/27 08:07:13;;;;;;;;;;;24.20;66.20;;;;;;5086698;28;43767;-80
2023/09/27 08:09:39;;;;;;;;;;;24.40;66.40;;;;;;5085878;28;42854;-79
2023/09/27 08:12:05;;;;;;;;;;;24.20;66.20;;;;;;5086578;28;42851;-79
2023/09/27 08:14:32;;;;;;;;;;;24.20;66.20;;;;;;5086659;28;44282;-80
2023/09/27 08:16:57;;;;;;;;;;;24.30;66.30;;;;;;5086929;28;42862;-80
2023/09/27 08:19:24;;;;;;;;;;;24.30;66.20;;;;;;5086391;28;42958;-79
2023/09/27 08:21:50;;;;;;;;;;;24.40;66.00;;;;;;5086655;28;42950;-80
2023/09/27 08:24:17;;;;;;;;;;;24.20;65.90;;;;;;5085900;28;43891;-79
2023/09/27 08:26:42;;;;;;;;;;;24.20;66.50;;;;;;5086368;28;42847;-80
2023/09/27 08:29:09;;;;;;;;;;;24.10;65.80;;;;;;5086659;28;43547;-80
2023/09/27 08:31:37;;;;;;;;;;;24.20;65.60;;;;;;5086492;28;42874;-80
2023/09/27 08:34:04;;;;;;;;;;;24.30;65.80;;;;;;5086761;28;42945;-80
2023/09/27 08:36:30;;;;;;;;;;;24.20;65.50;;;;;;5086221;28;43023;-80
2023/09/27 08:38:56;;;;;;;;;;;24.40;65.70;;;;;;5086398;28;42843;-80
2023/09/27 08:41:23;;;;;;;;;;;24.20;64.80;;;;;;5087012;28;42755;-79
2023/09/27 08:43:49;;;;;;;;;;;24.40;65.40;;;;;;5086032;28;43499;-80
2023/09/27 08:46:15;;;;;;;;;;;24.30;65.00;;;;;;5086174;28;42907;-80
2023/09/27 08:48:41;;;;;;;;;;;24.20;64.80;;;;;;5085785;27;43009;-80
2023/09/27 08:51:06;;;;;;;;;;;24.20;64.70;;;;;;5086034;28;42929;-80
2023/09/27 08:53:33;;;;;;;;;;;24.30;64.50;;;;;;5086160;28;43493;-79
2023/09/27 08:56:01;;;;;;;;;;;24.20;64.30;;;;;;5085817;28;43067;-79
2023/09/27 08:58:27;;;;;;;;;;;24.20;64.20;;;;;;5085775;28;42914;-80
2023/09/27 09:00:53;;;;;;;;;;;24.30;64.20;;;;;;5085814;28;42900;-80
2023/09/27 09:03:19;;;;;;;;;;;24.20;64.00;;;;;;5085836;28;42889;-80
2023/09/27 09:05:45;;;;;;;;;;;24.10;64.00;;;;;;5085398;28;42966;-80
2023/09/27 09:08:11;;;;;;;;;;;24.20;63.70;;;;;;5085649;28;43871;-81
2023/09/27 09:10:37;;;;;;;;;;;24.40;63.20;;;;;;5085381;28;42986;-80
2023/09/27 09:13:04;;;;;;;;;;;24.30;63.60;;;;;;5085929;28;44371;-81
2023/09/27 09:15:29;;;;;;;;;;;24.30;63.40;;;;;;5084561;28;42959;-80
2023/09/27 09:17:57;;;;;;;;;;;24.20;62.90;;;;;;5085211;28;44062;-80
2023/09/27 09:20:31;;;;;;;;;;;24.30;62.80;;;;;;5084820;28;43066;-80
2023/09/27 09:23:00;;;;;;;;;;;24.50;63.60;;;;;;5085478;28;42985;-80
2023/09/27 09:25:27;;;;;;;;;;;24.30;63.50;;;;;;5085644;28;42944;-79
2023/09/27 09:28:03;;;;;;;;;;;24.30;63.40;;;;;;5085881;28;42847;-80
2023/09/27 09:30:35;;;;;;;;;;;24.20;60.90;;;;;;5085943;28;42977;-80
2023/09/27 09:33:03;;;;;;;;;;;24.20;60.80;;;;;;5085157;28;42934;-79
2023/09/27 09:35:32;;;;;;;;;;;24.20;63.30;;;;;;5085103;28;42934;-80
2023/09/27 09:38:01;;;;;;;;;;;24.10;60.50;;;;;;5085296;28;43352;-80
2023/09/27 09:40:27;;;;;;;;;;;24.10;59.70;;;;;;5084695;28;42977;-80
2023/09/27 09:42:53;;;;;;;;;;;24.20;61.60;;;;;;5085125;28;43524;-80
2023/09/27 09:45:20;;;;;;;;;;;24.10;60.50;;;;;;5084046;28;43117;-80
2023/09/27 09:47:45;;;;;;;;;;;24.10;59.50;;;;;;5085774;28;43399;-79
2023/09/27 09:50:16;;;;;;;;;;;24.10;59.60;;;;;;5085268;28;42797;-81
2023/09/27 09:52:49;;;;;;;;;;;24.10;59.20;;;;;;5085187;28;43441;-81
2023/09/27 09:55:19;;;;;;;;;;;23.90;59.10;;;;;;5085421;28;42929;-80
2023/09/27 09:57:45;;;;;;;;;;;25.00;59.40;;;;;;5084966;28;44345;-80
2023/09/27 10:00:18;;;;;;;;;;;24.20;58.80;;;;;;5084995;28;43017;-80
2023/09/27 10:02:49;;;;;;;;;;;24.10;57.50;;;;;;5084785;28;43695;-79
2023/09/27 10:05:17;;;;;;;;;;;24.10;56.40;;;;;;5084990;28;42954;-79
2023/09/27 10:07:44;;;;;;;;;;;24.30;58.10;;;;;;5083457;28;43568;-80
2023/09/27 10:10:10;;;;;;;;;;;24.30;58.00;;;;;;5085772;28;42933;-80
2023/09/27 10:12:36;;;;;;;;;;;24.30;57.80;;;;;;5085070;28;42983;-80
2023/09/27 10:15:02;;;;;;;;;;;24.30;57.80;;;;;;5083080;28;42918;-80
2023/09/27 10:17:29;;;;;;;;;;;24.20;58.00;;;;;;5084904;28;42969;-79
2023/09/27 10:20:28;;;;;;;;;;;24.20;57.80;;;;;;5084630;28;42944;-79
2023/09/27 10:22:53;;;;;;;;;;;24.40;56.00;;;;;;5083971;27;43391;-80
2023/09/27 10:25:31;;;;;;;;;;;24.40;57.90;;;;;;5083975;28;42902;-79
2023/09/27 10:28:01;;;;;;;;;;;24.40;56.00;;;;;;5084744;28;43303;-80
2023/09/27 10:30:27;;;;;;;;;;;24.80;56.30;;;;;;5083469;28;42985;-80
2023/09/27 10:33:11;;;;;;;;;;;24.30;57.70;;;;;;5084776;28;43670;-79
2023/09/27 10:35:36;;;;;;;;;;;24.50;55.60;;;;;;5090732;27;42957;-80
2023/09/27 10:38:08;;;;;;;;;;;23.90;57.10;;;;;;5104949;27;42984;-80
2023/09/27 10:40:42;;;;;;;;;;;24.50;57.20;;;;;;5104569;27;42941;-80
2023/09/27 10:43:07;;;;;;;;;;;24.20;55.20;;;;;;5104450;27;43547;-81
2023/09/27 10:45:33;;;;;;;;;;;24.60;57.30;;;;;;5098117;27;42933;-80
2023/09/27 10:48:18;;;;;;;;;;;24.40;57.00;;;;;;5082228;28;44463;-80
2023/09/27 10:50:55;;;;;;;;;;;23.90;53.50;;;;;;5083390;28;42992;-80
2023/09/27 10:53:21;;;;;;;;;;;24.50;53.80;;;;;;5082520;28;43948;-81
2023/09/27 10:55:46;;;;;;;;;;;24.40;55.70;;;;;;5084179;28;43025;-80
2023/09/27 10:58:15;;;;;;;;;;;24.50;55.70;;;;;;5082202;28;44692;-81
2023/09/27 11:00:49;;;;;;;;;;;24.40;54.50;;;;;;5083843;28;42889;-83
2023/09/27 11:03:16;;;;;;;;;;;24.20;53.50;;;;;;5080749;28;42945;-84
2023/09/27 11:05:42;;;;;;;;;;;24.30;55.50;;;;;;5083240;28;42909;-85
2023/09/27 11:08:07;;;;;;;;;;;24.30;55.50;;;;;;5083502;28;44348;-86
2023/09/27 11:10:33;;;;;;;;;;;24.20;55.80;;;;;;5081274;28;42956;-86
2023/09/27 11:13:06;;;;;;;;;;;24.40;54.60;;;;;;5082308;27;43154;-86
2023/09/27 11:15:32;;;;;;;;;;;24.40;56.20;;;;;;5087237;28;42889;-86
2023/09/27 11:17:57;;;;;;;;;;;24.20;56.60;;;;;;5086664;28;42925;-82
2023/09/27 11:20:23;;;;;;;;;;;24.20;56.70;;;;;;5086404;28;43151;-82
2023/09/27 11:22:55;;;;;;;;;;;24.60;56.80;;;;;;5085205;28;43144;-84
2023/09/27 11:25:27;;;;;;;;;;;24.40;56.50;;;;;;5085624;28;43177;-82
2023/09/27 11:27:53;;;;;;;;;;;24.70;54.80;;;;;;5084090;28;43465;-83
2023/09/27 11:30:26;;;;;;;;;;;24.30;56.70;;;;;;5086772;28;43043;-81
2023/09/27 11:32:52;;;;;;;;;;;24.40;54.90;;;;;;5086930;28;42964;-83
2023/09/27 11:35:18;;;;;;;;;;;24.80;57.00;;;;;;5085946;28;42929;-82
2023/09/27 11:37:44;;;;;;;;;;;24.40;56.80;;;;;;5086950;28;43587;-82
2023/09/27 11:40:10;;;;;;;;;;;24.60;57.00;;;;;;5086892;28;42929;-82
2023/09/27 11:42:35;;;;;;;;;;;24.70;56.80;;;;;;5084734;28;43687;-82
2023/09/27 11:45:03;;;;;;;;;;;24.70;57.20;;;;;;5086790;28;42909;-83
2023/09/27 11:47:29;;;;;;;;;;;24.80;56.70;;;;;;5086417;28;43082;-83
2023/09/27 11:49:54;;;;;;;;;;;24.60;56.80;;;;;;5086361;28;43094;-83
2023/09/27 11:52:20;;;;;;;;;;;24.50;56.60;;;;;;5086266;28;43218;-84
2023/09/27 11:54:45;;;;;;;;;;;24.70;56.70;;;;;;5086967;28;43052;-81
2023/09/27 11:57:11;;;;;;;;;;;24.70;56.50;;;;;;5084866;28;42997;-84
2023/09/27 11:59:39;;;;;;;;;;;24.50;56.70;;;;;;5085358;28;43407;-83
2023/09/27 12:02:05;;;;;;;;;;;24.60;55.70;;;;;;5085341;28;43699;-82
2023/09/27 12:04:30;;;;;;;;;;;24.80;57.30;;;;;;5085752;28;42940;-80
2023/09/27 12:06:56;;;;;;;;;;;24.80;56.80;;;;;;5085000;28;42954;-83
2023/09/27 12:09:21;;;;;;;;;;;24.90;57.40;;;;;;5085753;28;42842;-81
2023/09/27 12:11:47;;;;;;;;;;;24.70;56.80;;;;;;5084512;28;44069;-83
2023/09/27 12:14:12;;;;;;;;;;;24.80;56.90;;;;;;5085910;28;42960;-83
2023/09/27 12:16:38;;;;;;;;;;;24.80;57.30;;;;;;5085851;28;43798;-83
2023/09/27 12:19:04;;;;;;;;;;;24.80;56.90;;;;;;5085663;28;43034;-81
2023/09/27 12:21:34;;;;;;;;;;;24.70;57.20;;;;;;5084863;28;43903;-82
2023/09/27 12:23:59;;;;;;;;;;;24.80;57.30;;;;;;5085707;27;42793;-85
2023/09/27 12:26:25;;;;;;;;;;;24.80;56.80;;;;;;5084017;27;43481;-80
2023/09/27 12:28:51;;;;;;;;;;;24.80;56.80;;;;;;5084148;28;42954;-83
2023/09/27 12:31:16;;;;;;;;;;;24.80;56.70;;;;;;5092070;27;45190;-85
2023/09/27 12:33:44;;;;;;;;;;;24.70;56.40;;;;;;5080997;28;44383;-83
2023/09/27 12:36:10;;;;;;;;;;;24.90;54.40;;;;;;5082093;27;43257;-81
2023/09/27 12:38:35;;;;;;;;;;;24.70;56.40;;;;;;5083063;28;42976;-82
2023/09/27 12:41:03;;;;;;;;;;;24.70;56.40;;;;;;5084536;27;43208;-84
2023/09/27 12:43:29;;;;;;;;;;;24.60;55.90;;;;;;5082784;28;43198;-82
2023/09/27 12:45:54;;;;;;;;;;;24.80;56.20;;;;;;5083409;27;43602;-82
2023/09/27 12:48:20;;;;;;;;;;;24.60;56.00;;;;;;5080992;27;43092;-84
2023/09/27 12:50:45;;;;;;;;;;;24.60;56.00;;;;;;5084364;28;43349;-80
2023/09/27 12:53:11;;;;;;;;;;;24.60;55.60;;;;;;5084350;28;42956;-78
2023/09/27 12:55:40;;;;;;;;;;;24.70;55.30;;;;;;5064475;28;43706;-83
2023/09/27 12:58:06;;;;;;;;;;;24.70;53.50;;;;;;5064706;28;42918;-84
2023/09/27 13:00:31;;;;;;;;;;;24.60;55.60;;;;;;5065510;28;42842;-85
2023/09/27 13:02:57;;;;;;;;;;;24.60;55.20;;;;;;5065763;28;43012;-84
2023/09/27 13:05:22;;;;;;;;;;;24.80;55.30;;;;;;5065973;28;42946;-83
2023/09/27 13:07:48;;;;;;;;;;;24.80;55.40;;;;;;5065874;28;42966;-83
2023/09/27 13:10:14;;;;;;;;;;;24.70;55.70;;;;;;5064119;28;44717;-85
2023/09/27 13:12:39;;;;;;;;;;;24.80;55.20;;;;;;5065776;28;42925;-85
2023/09/27 13:15:05;;;;;;;;;;;24.80;55.00;;;;;;5080301;28;45319;-85
2023/09/27 13:17:31;;;;;;;;;;;24.80;55.20;;;;;;5064666;28;43006;-84
2023/09/27 13:19:56;;;;;;;;;;;24.70;55.40;;;;;;5064529;28;43344;-85
2023/09/27 13:22:22;;;;;;;;;;;24.80;55.60;;;;;;5064974;28;42945;-84
2023/09/27 13:24:47;;;;;;;;;;;24.70;54.90;;;;;;5065219;28;42997;-84
2023/09/27 13:27:13;;;;;;;;;;;24.70;54.90;;;;;;5065519;28;42859;-80
2023/09/27 13:29:43;;;;;;;;;;;24.60;55.00;;;;;;5065394;28;43008;-85
2023/09/27 13:32:08;;;;;;;;;;;24.50;54.20;;;;;;5065033;28;42776;-84
2023/09/27 13:34:34;;;;;;;;;;;25.00;55.30;;;;;;5064723;28;43405;-81
2023/09/27 13:37:00;;;;;;;;;;;24.70;54.80;;;;;;5063786;28;43031;-84
2023/09/27 13:39:29;;;;;;;;;;;24.80;54.90;;;;;;5065138;28;42890;-84
2023/09/27 13:41:55;;;;;;;;;;;24.70;55.30;;;;;;5065181;28;42975;-84
2023/09/27 13:44:21;;;;;;;;;;;24.90;54.70;;;;;;5065654;28;42859;-83
2023/09/27 13:46:46;;;;;;;;;;;25.00;55.10;;;;;;5064893;28;42845;-84
2023/09/27 13:49:12;;;;;;;;;;;24.70;54.80;;;;;;5064994;28;44245;-85
2023/09/27 13:51:38;;;;;;;;;;;24.70;55.00;;;;;;5065265;28;42753;-84
2023/09/27 13:54:07;;;;;;;;;;;24.70;54.80;;;;;;5065160;28;43497;-85
2023/09/27 13:56:33;;;;;;;;;;;24.80;52.90;;;;;;5064934;28;42998;-85
2023/09/27 13:59:01;;;;;;;;;;;24.70;54.90;;;;;;5063666;28;42935;-84
2023/09/27 14:01:27;;;;;;;;;;;24.90;53.60;;;;;;5065293;28;43171;-84
2023/09/27 14:03:52;;;;;;;;;;;25.00;54.70;;;;;;5065331;28;43590;-85
2023/09/27 14:06:18;;;;;;;;;;;24.80;55.30;;;;;;5065272;28;42930;-84
2023/09/27 14:08:44;;;;;;;;;;;24.90;55.10;;;;;;5064953;28;43656;-84
2023/09/27 14:11:14;;;;;;;;;;;24.90;54.80;;;;;;5065060;28;42697;-84
2023/09/27 14:13:39;;;;;;;;;;;24.90;53.30;;;;;;5064355;28;44480;-83